Thurman, Indiana
Current Conditions -  °F | °C
As of 11:54 PM on Monday 26 Jan 2015 (Local Time) from KFWA Reporting Station
Overcast Overcast  
Wind Chill: 12°   Ceiling: 5500
Heat Index: 19°   Visibility: 10mi
Dew Point: 13°   Wind: 5mph
Humidity: 77%   Direction: 120°ESE
Pressure: 29.95"   Gusts: NA
Location:  41.0925°N, 84.9712°W
Report Text: KFWA 270454Z 12004KT 10SM BKN055 OVC070 M07/M11 A2995 RMK AO2 SLP155 T10721106 410561139
Loading
Personal Weather Stations






























Interactive Weather Map New forecast layout! Learn more

10-Day Weather Forecast

Advertisements
Track Severe Weather on mobile